Time;durP1;ratioP1;P1;durP2;ratioP2;P2;SDS_P1;SDS_P2;PMS_P1;PMS_P2;Temp;Humidity;BMP_temperature;BMP_pressure;BME280_temperature;BME280_humidity;BME280_pressure;Samples;Min_cycle;Max_cycle;Signal;HPM_P1;HPM_P2
2024/01/18 00:01:08;;;;;;;0.00;0.00;;;3.00;73.30;;;;;;5067662;28;20191;-34
2024/01/18 00:03:40;;;;;;;0.00;0.00;;;3.00;73.20;;;;;;5083797;28;20272;-35
2024/01/18 00:06:10;;;;;;;0.00;0.00;;;3.00;73.30;;;;;;5084014;28;20283;-35
2024/01/18 00:08:39;;;;;;;0.00;0.00;;;3.00;73.30;;;;;;5085753;28;20293;-34
2024/01/18 00:11:07;;;;;;;0.00;0.00;;;2.90;73.20;;;;;;5083727;28;20183;-35
2024/01/18 00:13:36;;;;;;;0.00;0.00;;;3.00;73.20;;;;;;5083729;28;20222;-34
2024/01/18 00:16:04;;;;;;;0.00;0.00;;;2.90;73.10;;;;;;5083833;28;20214;-36
2024/01/18 00:18:38;;;;;;;0.00;0.00;;;2.90;73.10;;;;;;5085980;28;20206;-35
2024/01/18 00:21:06;;;;;;;0.00;0.00;;;2.90;73.20;;;;;;5083649;28;20393;-35
2024/01/18 00:23:36;;;;;;;0.00;0.00;;;2.90;73.30;;;;;;5085373;28;20203;-35
2024/01/18 00:26:06;;;;;;;0.00;0.00;;;2.90;73.30;;;;;;5085551;28;20345;-35
2024/01/18 00:28:35;;;;;;;0.00;0.00;;;2.90;73.50;;;;;;5084043;28;20191;-35
2024/01/18 00:31:05;;;;;;;0.00;0.00;;;2.90;73.50;;;;;;5085408;28;20203;-35
2024/01/18 00:33:35;;;;;;;0.00;0.00;;;2.90;73.30;;;;;;5085332;28;20665;-34
2024/01/18 00:36:09;;;;;;;0.00;0.00;;;2.90;73.10;;;;;;5052024;28;20808;-35
2024/01/18 00:38:38;;;;;;;0.00;0.00;;;2.90;73.10;;;;;;5083667;28;20203;-35
2024/01/18 00:41:06;;;;;;;0.00;0.00;;;2.90;73.20;;;;;;5083679;28;20264;-35
2024/01/18 00:43:33;;;;;;;0.00;0.00;;;2.90;73.20;;;;;;5083569;28;20602;-34
2024/01/18 00:46:05;;;;;;;0.00;0.00;;;2.90;73.30;;;;;;5083281;28;20692;-34
2024/01/18 00:48:34;;;;;;;0.00;0.00;;;2.80;73.10;;;;;;5084919;28;20297;-34
2024/01/18 00:51:06;;;;;;;0.00;0.00;;;2.80;73.20;;;;;;5083425;28;20685;-34
2024/01/18 00:53:34;;;;;;;0.00;0.00;;;2.90;73.20;;;;;;5083203;28;20234;-35
2024/01/18 00:56:08;;;;;;;0.00;0.00;;;2.80;73.20;;;;;;5084635;28;20927;-35
2024/01/18 00:58:39;;;;;;;0.00;0.00;;;2.80;73.20;;;;;;5083155;28;20182;-35
2024/01/18 01:01:09;;;;;;;0.00;0.00;;;2.80;73.30;;;;;;5084725;28;20249;-36
2024/01/18 01:03:37;;;;;;;0.00;0.00;;;2.80;73.30;;;;;;5067201;28;20191;-34
2024/01/18 01:06:05;;;;;;;0.00;0.00;;;2.80;73.20;;;;;;5084697;28;20203;-35
2024/01/18 01:08:36;;;;;;;0.00;0.00;;;2.80;73.10;;;;;;5084965;28;20195;-34
2024/01/18 01:11:05;;;;;;;0.00;0.00;;;2.80;73.20;;;;;;5083039;28;20203;-35
2024/01/18 01:13:32;;;;;;;0.00;0.00;;;2.80;73.20;;;;;;5084523;28;20206;-34
2024/01/18 01:16:01;;;;;;;0.00;0.00;;;2.70;73.10;;;;;;5083195;28;20703;-35
2024/01/18 01:18:29;;;;;;;0.00;0.00;;;2.80;73.20;;;;;;5083257;28;20294;-35
2024/01/18 01:20:59;;;;;;;0.00;0.00;;;2.70;73.20;;;;;;5084998;28;20333;-34
2024/01/18 01:23:26;;;;;;;0.00;0.00;;;2.70;73.10;;;;;;5082911;28;21018;-35
2024/01/18 01:25:53;;;;;;;0.00;0.00;;;2.70;73.10;;;;;;5084284;28;20317;-37
2024/01/18 01:28:21;;;;;;;0.00;0.00;;;2.70;73.20;;;;;;5066324;28;20194;-35
2024/01/18 01:30:48;;;;;;;0.00;0.00;;;2.70;73.30;;;;;;5083184;28;20195;-37
2024/01/18 01:33:15;;;;;;;0.00;0.00;;;2.70;73.40;;;;;;5084388;28;20207;-35
2024/01/18 01:35:45;;;;;;;0.00;0.00;;;2.70;73.40;;;;;;5083305;28;20195;-35
2024/01/18 01:38:12;;;;;;;0.00;0.00;;;2.70;73.50;;;;;;5084486;28;20199;-34
2024/01/18 01:40:39;;;;;;;0.00;0.00;;;2.80;73.50;;;;;;5083079;28;20612;-35
2024/01/18 01:43:07;;;;;;;0.00;0.00;;;2.80;73.50;;;;;;5083051;28;20199;-36
2024/01/18 01:45:36;;;;;;;0.00;0.00;;;2.80;73.40;;;;;;5084225;28;20248;-34
2024/01/18 01:48:09;;;;;;;0.00;0.00;;;2.80;73.40;;;;;;5082620;28;20207;-35
2024/01/18 01:50:36;;;;;;;0.00;0.00;;;2.80;73.40;;;;;;5084672;28;20581;-35
2024/01/18 01:53:05;;;;;;;0.00;0.00;;;2.80;73.50;;;;;;5084373;28;20217;-35
2024/01/18 01:55:35;;;;;;;0.00;0.00;;;2.80;73.50;;;;;;5082644;28;20254;-34
2024/01/18 01:58:02;;;;;;;0.00;0.00;;;2.80;73.50;;;;;;5082376;28;20668;-34
2024/01/18 02:00:30;;;;;;;0.00;0.00;;;2.90;73.60;;;;;;5084398;28;20668;-35
2024/01/18 02:02:58;;;;;;;0.00;0.00;;;2.90;73.60;;;;;;5084250;28;20298;-34
2024/01/18 02:05:26;;;;;;;0.00;0.00;;;2.80;73.50;;;;;;5082610;28;20540;-35
2024/01/18 02:07:56;;;;;;;0.00;0.00;;;2.80;73.60;;;;;;5084844;28;20268;-34
2024/01/18 02:10:27;;;;;;;0.00;0.00;;;2.90;73.60;;;;;;5082562;28;20559;-34
2024/01/18 02:12:58;;;;;;;0.00;0.00;;;2.90;73.60;;;;;;5083437;28;20214;-35
2024/01/18 02:15:25;;;;;;;0.00;0.00;;;2.90;73.80;;;;;;5087787;28;20209;-35
2024/01/18 02:17:55;;;;;;;0.00;0.00;;;2.90;73.60;;;;;;5086195;28;20210;-35
2024/01/18 02:20:22;;;;;;;0.00;0.00;;;2.90;73.60;;;;;;5087804;28;20223;-35
2024/01/18 02:22:55;;;;;;;0.00;0.00;;;2.90;73.70;;;;;;5087592;28;20890;-36
2024/01/18 02:25:29;;;;;;;0.00;0.00;;;2.90;73.70;;;;;;5087367;28;20243;-36
2024/01/18 02:28:00;;;;;;;0.00;0.00;;;2.90;73.60;;;;;;5087368;28;20429;-35
2024/01/18 02:30:30;;;;;;;0.00;0.00;;;2.90;73.60;;;;;;5087324;28;20745;-34
2024/01/18 02:32:57;;;;;;;0.00;0.00;;;2.90;73.60;;;;;;5067846;28;20199;-35
2024/01/18 02:35:25;;;;;;;0.00;0.00;;;2.90;73.70;;;;;;5086094;28;20252;-36
2024/01/18 02:37:52;;;;;;;0.00;0.00;;;2.90;73.70;;;;;;5085637;28;20620;-34
2024/01/18 02:40:22;;;;;;;0.00;0.00;;;2.90;73.60;;;;;;5052684;28;20696;-35
2024/01/18 02:42:52;;;;;;;0.00;0.00;;;2.90;73.60;;;;;;5087472;28;20669;-35
2024/01/18 02:45:24;;;;;;;0.00;0.00;;;2.90;73.60;;;;;;5087340;28;20211;-34
2024/01/18 02:47:51;;;;;;;0.00;0.00;;;2.90;73.60;;;;;;5085237;28;20191;-34
2024/01/18 02:50:21;;;;;;;0.00;0.00;;;2.90;73.60;;;;;;5085473;28;20191;-34
2024/01/18 02:52:50;;;;;;;0.00;0.00;;;2.90;73.70;;;;;;5085553;28;20290;-34
2024/01/18 02:55:20;;;;;;;0.00;0.00;;;3.00;73.70;;;;;;5085837;28;20218;-36
2024/01/18 02:57:50;;;;;;;0.00;0.00;;;2.90;73.60;;;;;;5085504;28;20211;-35
2024/01/18 03:00:17;;;;;;;0.00;0.00;;;2.90;73.60;;;;;;5086590;28;20218;-35
2024/01/18 03:02:45;;;;;;;0.00;0.00;;;3.00;73.70;;;;;;5087008;28;20209;-35
2024/01/18 03:05:12;;;;;;;0.00;0.00;;;2.90;73.60;;;;;;5087446;28;20205;-35
2024/01/18 03:07:42;;;;;;;0.00;0.00;;;3.00;73.60;;;;;;5086324;28;20725;-34
2024/01/18 03:10:09;;;;;;;0.00;0.00;;;3.00;73.70;;;;;;5085054;28;20272;-34
2024/01/18 03:12:37;;;;;;;0.00;0.00;;;2.90;74.00;;;;;;5085202;28;20199;-35
2024/01/18 03:15:10;;;;;;;0.00;0.00;;;2.90;73.60;;;;;;5085226;28;20748;-34
2024/01/18 03:17:37;;;;;;;0.00;0.00;;;2.90;73.60;;;;;;5084881;28;20214;-34
2024/01/18 03:20:07;;;;;;;0.00;0.00;;;2.90;73.60;;;;;;5085939;28;20223;-34
2024/01/18 03:22:42;;;;;;;0.00;0.00;;;2.90;73.70;;;;;;5086281;28;20537;-35
2024/01/18 03:25:12;;;;;;;0.00;0.00;;;2.90;73.70;;;;;;5085060;28;20234;-35
2024/01/18 03:27:39;;;;;;;0.00;0.00;;;2.90;73.70;;;;;;5086427;28;20514;-34
2024/01/18 03:30:10;;;;;;;0.00;0.00;;;2.90;73.70;;;;;;5084742;28;20206;-34
2024/01/18 03:32:37;;;;;;;0.00;0.00;;;2.90;73.70;;;;;;5086225;28;20667;-37
2024/01/18 03:35:06;;;;;;;0.00;0.00;;;2.90;73.60;;;;;;5086294;28;20671;-34
2024/01/18 03:37:36;;;;;;;0.00;0.00;;;3.00;73.70;;;;;;5068128;28;20198;-34
2024/01/18 03:40:05;;;;;;;0.00;0.00;;;3.00;73.70;;;;;;5084370;28;20669;-36
2024/01/18 03:42:39;;;;;;;0.00;0.00;;;2.90;73.60;;;;;;5086103;28;21007;-34
2024/01/18 03:45:09;;;;;;;0.00;0.00;;;2.90;73.60;;;;;;5085966;28;20210;-34
2024/01/18 03:47:38;;;;;;;0.00;0.00;;;2.90;73.60;;;;;;5084535;28;20199;-35
2024/01/18 03:50:06;;;;;;;0.00;0.00;;;2.90;73.60;;;;;;5084157;28;20202;-35
2024/01/18 03:52:33;;;;;;;0.00;0.00;;;2.90;73.70;;;;;;5085700;28;20203;-33
2024/01/18 03:55:00;;;;;;;0.00;0.00;;;2.90;73.70;;;;;;5086231;28;20409;-34
2024/01/18 03:57:35;;;;;;;0.00;0.00;;;2.90;73.70;;;;;;5085674;28;20203;-34
2024/01/18 04:00:05;;;;;;;0.00;0.00;;;2.90;73.70;;;;;;5084042;28;20263;-35
2024/01/18 04:02:38;;;;;;;0.00;0.00;;;2.90;73.70;;;;;;5085607;28;20322;-36
2024/01/18 04:05:08;;;;;;;0.00;0.00;;;2.90;73.80;;;;;;5084318;28;20206;-34
2024/01/18 04:07:40;;;;;;;0.00;0.00;;;2.90;73.80;;;;;;5084328;28;20558;-35
2024/01/18 04:10:08;;;;;;;0.00;0.00;;;3.00;73.80;;;;;;5085473;28;20195;-35
2024/01/18 04:12:38;;;;;;;0.00;0.00;;;2.90;73.70;;;;;;5084003;28;20218;-35
2024/01/18 04:15:06;;;;;;;0.00;0.00;;;2.90;73.70;;;;;;5085372;28;20195;-36
2024/01/18 04:17:34;;;;;;;0.00;0.00;;;3.00;73.70;;;;;;5084002;28;20207;-34
2024/01/18 04:20:05;;;;;;;0.00;0.00;;;2.90;73.60;;;;;;5085225;28;20284;-34
2024/01/18 04:22:35;;;;;;;0.00;0.00;;;2.90;73.60;;;;;;5085604;28;20205;-35
2024/01/18 04:25:05;;;;;;;0.00;0.00;;;2.90;73.60;;;;;;5067259;28;20629;-34
2024/01/18 04:27:35;;;;;;;0.00;0.00;;;2.90;73.60;;;;;;5084105;28;20694;-35
2024/01/18 04:30:03;;;;;;;0.00;0.00;;;2.90;73.70;;;;;;5083528;28;20202;-35
2024/01/18 04:32:30;;;;;;;0.00;0.00;;;2.90;73.60;;;;;;5083465;28;20685;-34
2024/01/18 04:34:57;;;;;;;0.00;0.00;;;2.90;73.70;;;;;;5085403;28;20313;-35
2024/01/18 04:37:27;;;;;;;0.00;0.00;;;2.90;73.60;;;;;;5085050;28;20206;-35
2024/01/18 04:39:54;;;;;;;0.00;0.00;;;2.90;73.70;;;;;;5085114;28;20205;-34
2024/01/18 04:42:22;;;;;;;0.00;0.00;;;2.80;73.50;;;;;;5083495;28;20756;-35
2024/01/18 04:44:49;;;;;;;0.00;0.00;;;2.80;73.50;;;;;;5085323;28;20691;-35
2024/01/18 04:47:19;;;;;;;0.00;0.00;;;2.80;73.70;;;;;;5085278;28;20267;-34
2024/01/18 04:49:48;;;;;;;0.00;0.00;;;2.80;73.60;;;;;;5085699;28;20191;-35
2024/01/18 04:52:16;;;;;;;0.00;0.00;;;2.80;73.60;;;;;;5083558;28;20288;-35
2024/01/18 04:54:43;;;;;;;0.00;0.00;;;2.80;73.60;;;;;;5084876;28;20821;-34
2024/01/18 04:57:13;;;;;;;0.00;0.00;;;2.80;73.60;;;;;;5083542;28;20206;-34
2024/01/18 04:59:42;;;;;;;0.00;0.00;;;2.80;73.70;;;;;;5083358;28;20217;-35
2024/01/18 05:02:10;;;;;;;0.00;0.00;;;2.80;73.70;;;;;;5084566;28;20226;-34
2024/01/18 05:04:37;;;;;;;0.00;0.00;;;2.80;73.70;;;;;;5083299;28;20237;-35
2024/01/18 05:07:05;;;;;;;0.00;0.00;;;2.80;73.70;;;;;;5068041;28;20199;-35
2024/01/18 05:09:37;;;;;;;0.00;0.00;;;2.80;73.70;;;;;;5084972;28;20716;-34
2024/01/18 05:12:07;;;;;;;0.00;0.00;;;2.80;73.70;;;;;;5050286;28;20743;-35
2024/01/18 05:14:42;;;;;;;0.00;0.00;;;2.80;73.60;;;;;;5084954;28;20180;-34
2024/01/18 05:17:13;;;;;;;0.00;0.00;;;2.70;73.60;;;;;;5083360;28;20203;-34
2024/01/18 05:19:40;;;;;;;0.00;0.00;;;2.70;73.60;;;;;;5084803;28;20582;-34
2024/01/18 05:22:07;;;;;;;0.00;0.00;;;2.70;73.60;;;;;;5084710;28;20218;-34
2024/01/18 05:24:35;;;;;;;0.00;0.00;;;2.70;73.60;;;;;;5084244;28;20469;-36
2024/01/18 05:27:02;;;;;;;0.00;0.00;;;2.70;73.60;;;;;;5084677;28;20192;-34
2024/01/18 05:29:30;;;;;;;0.00;0.00;;;2.70;73.70;;;;;;5084416;28;20241;-35
2024/01/18 05:31:58;;;;;;;0.00;0.00;;;2.70;73.60;;;;;;5066234;28;20202;-34
2024/01/18 05:34:26;;;;;;;0.00;0.00;;;2.70;73.60;;;;;;5083536;28;20194;-34
2024/01/18 05:36:56;;;;;;;0.00;0.00;;;2.70;73.60;;;;;;5086760;28;20260;-34
2024/01/18 05:39:25;;;;;;;0.00;0.00;;;2.70;73.60;;;;;;5086908;28;20527;-35
2024/01/18 05:41:52;;;;;;;0.00;0.00;;;2.70;73.70;;;;;;5084489;28;20226;-35
2024/01/18 05:44:20;;;;;;;0.00;0.00;;;2.60;73.60;;;;;;5082911;28;20577;-36
2024/01/18 05:46:51;;;;;;;0.00;0.00;;;2.70;73.60;;;;;;5082652;28;20214;-36
2024/01/18 05:49:21;;;;;;;0.00;0.00;;;2.60;73.40;;;;;;5087303;28;20702;-35
2024/01/18 05:51:51;;;;;;;0.00;0.00;;;2.60;73.40;;;;;;5086640;28;20194;-35
2024/01/18 05:54:21;;;;;;;0.00;0.00;;;2.60;73.40;;;;;;5088087;28;20199;-34
2024/01/18 05:56:51;;;;;;;0.00;0.00;;;2.60;73.40;;;;;;5086354;28;20294;-34
2024/01/18 05:59:20;;;;;;;0.00;0.00;;;2.50;73.30;;;;;;5088097;28;20206;-35
2024/01/18 06:01:47;;;;;;;0.00;0.00;;;2.50;73.20;;;;;;5070314;28;20526;-33
2024/01/18 06:04:15;;;;;;;0.00;0.00;;;2.40;73.10;;;;;;5087837;28;20198;-35
2024/01/18 06:06:45;;;;;;;0.00;0.00;;;2.40;73.10;;;;;;5088270;28;20584;-34
2024/01/18 06:09:16;;;;;;;0.00;0.00;;;2.30;73.00;;;;;;5087868;28;20744;-33
2024/01/18 06:11:47;;;;;;;0.00;0.00;;;2.30;73.00;;;;;;5086486;28;20871;-36
2024/01/18 06:14:15;;;;;;;0.00;0.00;;;2.20;72.90;;;;;;5088030;28;20752;-35
2024/01/18 06:16:45;;;;;;;0.00;0.00;;;2.20;72.90;;;;;;5086106;28;20557;-35
2024/01/18 06:19:14;;;;;;;0.00;0.00;;;2.10;72.80;;;;;;5087749;28;20199;-35
2024/01/18 06:21:42;;;;;;;0.00;0.00;;;2.00;72.80;;;;;;5087772;28;20218;-35
2024/01/18 06:24:13;;;;;;;0.00;0.00;;;2.00;72.80;;;;;;5086201;28;20199;-35
2024/01/18 06:26:43;;;;;;;0.00;0.00;;;1.90;72.70;;;;;;5087138;28;20230;-35
2024/01/18 06:29:12;;;;;;;0.00;0.00;;;1.90;72.70;;;;;;5087432;28;20201;-35
2024/01/18 06:31:39;;;;;;;0.00;0.00;;;1.80;73.40;;;;;;5087614;28;20660;-35
2024/01/18 06:34:10;;;;;;;0.00;0.00;;;1.80;72.70;;;;;;5085895;28;20624;-35
2024/01/18 06:36:39;;;;;;;0.00;0.00;;;1.70;73.40;;;;;;5087632;28;20198;-35
2024/01/18 06:39:07;;;;;;;0.00;0.00;;;1.70;72.60;;;;;;5085933;28;20210;-35
2024/01/18 06:41:37;;;;;;;0.00;0.00;;;1.60;72.70;;;;;;5085941;28;20218;-35
2024/01/18 06:44:05;;;;;;;0.00;0.00;;;1.60;72.70;;;;;;5087187;28;20824;-35
2024/01/18 06:46:32;;;;;;;0.00;0.00;;;1.50;72.80;;;;;;5087098;28;20677;-35
2024/01/18 06:49:00;;;;;;;0.00;0.00;;;1.50;72.80;;;;;;5086820;28;20199;-34
2024/01/18 06:51:30;;;;;;;0.00;0.00;;;1.50;72.70;;;;;;5085992;28;20515;-35
2024/01/18 06:54:00;;;;;;;0.00;0.00;;;1.40;72.60;;;;;;5087062;28;20557;-35
2024/01/18 06:56:30;;;;;;;0.00;0.00;;;1.40;72.60;;;;;;5069375;28;20198;-35
2024/01/18 06:59:01;;;;;;;0.00;0.00;;;1.40;72.60;;;;;;5085011;28;20843;-35
2024/01/18 07:01:30;;;;;;;0.00;0.00;;;1.30;72.50;;;;;;5085376;28;20206;-37
2024/01/18 07:04:00;;;;;;;0.00;0.00;;;1.30;72.50;;;;;;5086805;28;20203;-35
2024/01/18 07:06:27;;;;;;;0.00;0.00;;;1.20;72.40;;;;;;5085170;28;20195;-35
2024/01/18 07:08:55;;;;;;;0.00;0.00;;;1.20;72.50;;;;;;5086583;28;20294;-34
2024/01/18 07:11:24;;;;;;;0.00;0.00;;;1.10;72.40;;;;;;5086811;28;20222;-35
2024/01/18 07:13:52;;;;;;;0.00;0.00;;;1.10;72.40;;;;;;5086658;28;20205;-35
2024/01/18 07:16:19;;;;;;;0.00;0.00;;;1.00;72.40;;;;;;5086490;28;20206;-35
2024/01/18 07:18:49;;;;;;;0.00;0.00;;;1.00;72.40;;;;;;5086306;28;20294;-35
2024/01/18 07:21:16;;;;;;;0.00;0.00;;;1.00;72.40;;;;;;5084910;28;20221;-36
2024/01/18 07:23:46;;;;;;;0.00;0.00;;;0.90;72.30;;;;;;5085024;28;20199;-35
2024/01/18 07:26:13;;;;;;;0.00;0.00;;;0.90;72.30;;;;;;5084546;28;20288;-35
2024/01/18 07:28:40;;;;;;;0.00;0.00;;;0.80;72.30;;;;;;5086442;28;20194;-35
2024/01/18 07:31:10;;;;;;;0.00;0.00;;;0.80;72.30;;;;;;5084460;28;20743;-35
2024/01/18 07:33:39;;;;;;;0.00;0.00;;;0.80;72.30;;;;;;5086788;28;20584;-35
2024/01/18 07:36:07;;;;;;;0.00;0.00;;;0.80;72.40;;;;;;5084610;28;20203;-35
2024/01/18 07:38:36;;;;;;;0.00;0.00;;;0.70;72.20;;;;;;5067441;28;20199;-37
2024/01/18 07:41:06;;;;;;;0.00;0.00;;;0.70;72.20;;;;;;5085667;28;20219;-37
2024/01/18 07:43:36;;;;;;;0.00;0.00;;;0.60;72.20;;;;;;5084916;28;20199;-36
2024/01/18 07:46:06;;;;;;;0.00;0.00;;;0.60;72.30;;;;;;5084577;28;20203;-36
2024/01/18 07:48:35;;;;;;;0.00;0.00;;;0.60;72.40;;;;;;5086011;28;20293;-35
2024/01/18 07:51:03;;;;;;;0.00;0.00;;;0.60;72.40;;;;;;5084642;28;20621;-36
2024/01/18 07:53:30;;;;;;;0.00;0.00;;;0.60;72.50;;;;;;5086207;28;20198;-35
2024/01/18 07:55:57;;;;;;;0.00;0.00;;;0.50;72.50;;;;;;5084500;28;20213;-35
2024/01/18 07:58:27;;;;;;;0.00;0.00;;;0.50;72.50;;;;;;5085482;28;20218;-36
2024/01/18 08:00:54;;;;;;;0.00;0.00;;;0.60;72.70;;;;;;5083984;28;20199;-36
2024/01/18 08:03:22;;;;;;;0.00;0.00;;;0.60;72.80;;;;;;5085227;28;20205;-36
2024/01/18 08:05:49;;;;;;;0.00;0.00;;;0.60;72.70;;;;;;5084572;28;20221;-35
2024/01/18 08:08:16;;;;;;;0.00;0.00;;;0.60;72.70;;;;;;5085925;28;20699;-36
2024/01/18 08:10:43;;;;;;;0.00;0.00;;;0.60;72.70;;;;;;5083190;28;20221;-35
2024/01/18 08:13:13;;;;;;;0.00;0.00;;;0.60;72.60;;;;;;5083922;28;20186;-35
2024/01/18 08:15:42;;;;;;;0.00;0.00;;;0.60;72.70;;;;;;5085494;28;20632;-35
2024/01/18 08:18:10;;;;;;;0.00;0.00;;;0.60;72.60;;;;;;5085150;28;20199;-35
2024/01/18 08:20:40;;;;;;;0.00;0.00;;;0.60;72.60;;;;;;5067134;28;20563;-35
2024/01/18 08:23:08;;;;;;;0.00;0.00;;;0.60;72.50;;;;;;5085341;28;20290;-34
2024/01/18 08:25:35;;;;;;;0.00;0.00;;;0.60;72.50;;;;;;5083695;28;20242;-34
2024/01/18 08:28:02;;;;;;;0.00;0.00;;;0.60;72.50;;;;;;5085206;28;20206;-34
2024/01/18 08:30:34;;;;;;;0.00;0.00;;;0.60;72.50;;;;;;5083124;28;20199;-34
2024/01/18 08:33:04;;;;;;;0.00;0.00;;;0.60;72.50;;;;;;5083893;28;20291;-34
2024/01/18 08:35:32;;;;;;;0.00;0.00;;;0.50;72.50;;;;;;5085604;28;20566;-35
2024/01/18 08:38:00;;;;;;;0.00;0.00;;;0.50;72.50;;;;;;5083836;28;20199;-34
2024/01/18 08:40:31;;;;;;;0.00;0.00;;;0.50;72.50;;;;;;5084897;28;20625;-33
2024/01/18 08:42:59;;;;;;;0.00;0.00;;;0.50;72.60;;;;;;5084566;28;20250;-34
2024/01/18 08:45:29;;;;;;;0.00;0.00;;;0.50;72.60;;;;;;5085087;28;20207;-33
2024/01/18 08:47:59;;;;;;;0.00;0.00;;;0.50;72.60;;;;;;5085264;28;20213;-34
2024/01/18 08:50:29;;;;;;;0.00;0.00;;;0.50;72.60;;;;;;5085170;28;20322;-34
2024/01/18 08:52:59;;;;;;;0.00;0.00;;;0.50;72.60;;;;;;5084901;28;20203;-35
2024/01/18 08:55:27;;;;;;;0.00;0.00;;;0.50;72.60;;;;;;5083375;28;20234;-34
2024/01/18 08:57:54;;;;;;;0.00;0.00;;;0.60;72.70;;;;;;5083423;28;20207;-34
2024/01/18 09:00:24;;;;;;;0.00;0.00;;;0.60;72.80;;;;;;5084863;28;20203;-35
2024/01/18 09:02:51;;;;;;;0.00;0.00;;;0.60;72.80;;;;;;5083311;28;20211;-35
2024/01/18 09:05:21;;;;;;;0.00;0.00;;;0.60;72.90;;;;;;5085169;28;20269;-35
2024/01/18 09:07:53;;;;;;;0.00;0.00;;;0.60;72.90;;;;;;5083513;28;20335;-34
2024/01/18 09:10:21;;;;;;;0.00;0.00;;;0.60;72.90;;;;;;5066754;28;20195;-35
2024/01/18 09:12:49;;;;;;;0.00;0.00;;;0.70;73.00;;;;;;5082865;28;20228;-35
2024/01/18 09:15:16;;;;;;;0.00;0.00;;;0.70;73.00;;;;;;5082865;28;20211;-34
2024/01/18 09:17:43;;;;;;;0.00;0.00;;;0.70;73.00;;;;;;5084577;28;20331;-35
2024/01/18 09:20:13;;;;;;;0.00;0.00;;;0.70;73.00;;;;;;5083289;28;20707;-35
2024/01/18 09:22:42;;;;;;;0.00;0.00;;;0.80;73.00;;;;;;5084672;28;20215;-35
2024/01/18 09:25:10;;;;;;;0.00;0.00;;;0.80;73.00;;;;;;5088548;28;20262;-34
2024/01/18 09:27:38;;;;;;;0.00;0.00;;;0.80;73.00;;;;;;5088498;28;20209;-35
2024/01/18 09:30:09;;;;;;;0.00;0.00;;;0.80;73.00;;;;;;5088694;28;20198;-35
2024/01/18 09:32:41;;;;;;;0.00;0.00;;;0.90;73.10;;;;;;5086817;28;20194;-35
2024/01/18 09:35:08;;;;;;;0.00;0.00;;;0.90;73.10;;;;;;5086868;28;20601;-35
2024/01/18 09:37:36;;;;;;;0.00;0.00;;;0.90;73.10;;;;;;5088206;28;20265;-34
2024/01/18 09:40:11;;;;;;;0.00;0.00;;;0.90;73.10;;;;;;5088653;28;20198;-34
2024/01/18 09:42:45;;;;;;;0.00;0.00;;;1.00;73.20;;;;;;5088556;28;20261;-36
2024/01/18 09:45:14;;;;;;;0.00;0.00;;;1.00;73.20;;;;;;5070371;28;20210;-36
2024/01/18 09:47:42;;;;;;;0.00;0.00;;;1.00;73.30;;;;;;5088155;28;20286;-36
2024/01/18 09:50:11;;;;;;;0.00;0.00;;;1.00;73.40;;;;;;5087215;28;20205;-36
2024/01/18 09:52:39;;;;;;;0.00;0.00;;;1.10;73.40;;;;;;5088258;28;20203;-37
2024/01/18 09:55:09;;;;;;;0.00;0.00;;;1.20;73.50;;;;;;5086643;28;20712;-35
2024/01/18 09:57:45;;;;;;;0.00;0.00;;;1.20;73.50;;;;;;5086414;28;20730;-35
2024/01/18 10:00:17;;;;;;;0.00;0.00;;;1.30;73.60;;;;;;5088291;28;20279;-35
2024/01/18 10:02:44;;;;;;;0.00;0.00;;;1.30;73.50;;;;;;5087841;28;20222;-34
2024/01/18 10:05:18;;;;;;;0.00;0.00;;;1.40;73.60;;;;;;5088160;28;20187;-35
2024/01/18 10:07:46;;;;;;;0.00;0.00;;;1.40;73.60;;;;;;5088057;28;20230;-35
2024/01/18 10:10:15;;;;;;;0.00;0.00;;;1.50;73.60;;;;;;5086307;28;20198;-36
2024/01/18 10:12:48;;;;;;;0.00;0.00;;;1.50;73.60;;;;;;5086388;28;20715;-36
2024/01/18 10:15:32;;;;;;;0.00;0.00;;;1.60;73.60;;;;;;5086219;28;20195;-36
2024/01/18 10:18:03;;;;;;;0.00;0.00;;;1.70;73.70;;;;;;5087683;28;20621;-37
2024/01/18 10:20:31;;;;;;;0.00;0.00;;;1.70;73.70;;;;;;5087727;28;20784;-38
2024/01/18 10:23:01;;;;;;;0.00;0.00;;;1.80;73.70;;;;;;5085510;28;20215;-37
2024/01/18 10:25:32;;;;;;;0.00;0.00;;;1.80;73.70;;;;;;5085817;28;20280;-36
2024/01/18 10:27:59;;;;;;;0.00;0.00;;;1.90;73.70;;;;;;5087542;28;20232;-36
2024/01/18 10:30:26;;;;;;;0.00;0.00;;;1.90;73.80;;;;;;5087910;28;20575;-38
2024/01/18 10:32:54;;;;;;;0.00;0.00;;;2.00;73.90;;;;;;5085989;28;20608;-36
2024/01/18 10:35:28;;;;;;;0.00;0.00;;;2.00;73.80;;;;;;5084904;28;20556;-37
2024/01/18 10:38:16;;;;;;;0.00;0.00;;;2.10;73.90;;;;;;5086221;28;20206;-36
2024/01/18 10:40:51;;;;;;;0.00;0.00;;;2.10;74.00;;;;;;5087242;28;20715;-37
2024/01/18 10:43:23;;;;;;;0.00;0.00;;;2.20;73.90;;;;;;5085626;28;20222;-36
2024/01/18 10:45:53;;;;;;;0.00;0.00;;;2.20;73.90;;;;;;5087245;28;20195;-36
2024/01/18 10:48:20;;;;;;;0.00;0.00;;;2.30;74.00;;;;;;5087202;28;20676;-36
2024/01/18 10:50:52;;;;;;;0.00;0.00;;;2.30;74.00;;;;;;5085716;28;20636;-38
2024/01/18 10:53:22;;;;;;;0.00;0.00;;;2.40;74.10;;;;;;5087201;28;20215;-38
2024/01/18 10:55:51;;;;;;;0.00;0.00;;;2.40;74.10;;;;;;5087066;28;20205;-36
2024/01/18 10:58:19;;;;;;;0.00;0.00;;;2.50;74.20;;;;;;5085459;28;20329;-36
2024/01/18 11:00:47;;;;;;;0.00;0.00;;;2.60;74.30;;;;;;5087025;28;20210;-37
2024/01/18 11:03:15;;;;;;;0.00;0.00;;;2.60;74.20;;;;;;5085528;28;20225;-36
2024/01/18 11:05:49;;;;;;;0.00;0.00;;;2.70;74.30;;;;;;5086978;28;20737;-35
2024/01/18 11:08:22;;;;;;;0.00;0.00;;;2.70;74.20;;;;;;5086767;28;20198;-35
2024/01/18 11:10:52;;;;;;;0.00;0.00;;;2.80;74.30;;;;;;5086413;28;20195;-36
2024/01/18 11:13:19;;;;;;;0.00;0.00;;;2.80;74.30;;;;;;5084788;28;20498;-37
2024/01/18 11:15:47;;;;;;;0.00;0.00;;;2.90;74.30;;;;;;5084944;28;20209;-37
2024/01/18 11:18:21;;;;;;;0.00;0.00;;;2.90;74.40;;;;;;5068464;28;20207;-37
2024/01/18 11:21:08;;;;;;;0.00;0.00;;;3.00;74.50;;;;;;5086282;28;20272;-38
2024/01/18 11:23:40;;;;;;;0.00;0.00;;;3.00;74.50;;;;;;5086163;28;20230;-36
2024/01/18 11:26:18;;;;;;;0.00;0.00;;;3.10;74.50;;;;;;5085007;28;20246;-36
2024/01/18 11:28:45;;;;;;;0.00;0.00;;;3.10;74.50;;;;;;5084918;28;20260;-36
2024/01/18 11:31:15;;;;;;;0.00;0.00;;;3.20;74.50;;;;;;5084724;28;20285;-36
2024/01/18 11:33:44;;;;;;;0.00;0.00;;;3.20;74.60;;;;;;5084559;28;20203;-35
2024/01/18 11:36:15;;;;;;;0.00;0.00;;;3.30;74.60;;;;;;5086504;28;20237;-36
2024/01/18 11:38:48;;;;;;;0.00;0.00;;;3.30;74.60;;;;;;5086395;28;20288;-36
2024/01/18 11:41:22;;;;;;;0.00;0.00;;;3.40;74.60;;;;;;5085874;28;20624;-36
2024/01/18 11:44:00;;;;;;;0.00;0.00;;;3.40;74.60;;;;;;5084489;28;20646;-35
2024/01/18 11:46:41;;;;;;;0.00;0.00;;;3.50;74.70;;;;;;5085119;28;20467;-36
2024/01/18 11:49:10;;;;;;;0.00;0.00;;;3.50;74.70;;;;;;5084358;28;20191;-37
2024/01/18 11:51:41;;;;;;;0.00;0.00;;;3.50;74.70;;;;;;5084191;28;20237;-36
2024/01/18 11:54:15;;;;;;;0.00;0.00;;;3.60;74.80;;;;;;5086277;28;20189;-36
2024/01/18 11:56:44;;;;;;;0.00;0.00;;;3.60;74.80;;;;;;5085939;28;20268;-36
2024/01/18 11:59:13;;;;;;;0.00;0.00;;;3.70;74.80;;;;;;5085687;28;20621;-36
2024/01/18 12:01:40;;;;;;;0.00;0.00;;;3.70;74.80;;;;;;5067664;28;20195;-35
2024/01/18 12:04:10;;;;;;;0.00;0.00;;;3.70;74.70;;;;;;5085991;28;20248;-35
2024/01/18 12:06:44;;;;;;;0.00;0.00;;;3.80;74.70;;;;;;5061988;28;21051;-36
2024/01/18 12:09:15;;;;;;;0.00;0.00;;;3.80;74.70;;;;;;5061519;28;20249;-36
2024/01/18 12:11:43;;;;;;;0.00;0.00;;;3.80;74.60;;;;;;5059976;28;20460;-36
2024/01/18 12:14:14;;;;;;;0.00;0.00;;;3.90;74.70;;;;;;5061927;28;20203;-36
2024/01/18 12:16:44;;;;;;;0.00;0.00;;;3.90;74.70;;;;;;5063440;28;20203;-35
2024/01/18 12:19:11;;;;;;;0.00;0.00;;;3.90;74.80;;;;;;5060196;28;20191;-35
2024/01/18 12:21:46;;;;;;;0.00;0.00;;;3.90;74.80;;;;;;5061393;28;20290;-35
2024/01/18 12:24:14;;;;;;;0.00;0.00;;;4.00;74.80;;;;;;5060169;28;20207;-36
2024/01/18 12:26:44;;;;;;;0.00;0.00;;;4.00;74.80;;;;;;5061765;28;20355;-35
2024/01/18 12:29:12;;;;;;;0.00;0.00;;;4.00;74.80;;;;;;5061387;28;20277;-36
2024/01/18 12:31:42;;;;;;;0.00;0.00;;;4.00;74.80;;;;;;5059772;28;20281;-36
2024/01/18 12:34:11;;;;;;;0.00;0.00;;;4.10;74.80;;;;;;5061407;28;20191;-35
2024/01/18 12:36:43;;;;;;;0.00;0.00;;;4.10;74.90;;;;;;5059974;28;20618;-35
2024/01/18 12:39:16;;;;;;;0.00;0.00;;;4.10;74.80;;;;;;5059758;28;20203;-35
2024/01/18 12:41:49;;;;;;;0.00;0.00;;;4.10;74.80;;;;;;5060943;28;20200;-36
2024/01/18 12:44:19;;;;;;;0.00;0.00;;;4.20;74.90;;;;;;5061457;28;20681;-35
2024/01/18 12:46:54;;;;;;;0.00;0.00;;;4.20;74.90;;;;;;5061252;28;20230;-35
2024/01/18 12:49:23;;;;;;;0.00;0.00;;;4.20;74.90;;;;;;5061109;28;20254;-35
2024/01/18 12:52:01;;;;;;;0.00;0.00;;;4.20;74.80;;;;;;5059383;28;20196;-35
2024/01/18 12:54:29;;;;;;;0.00;0.00;;;4.30;74.90;;;;;;5060974;28;20273;-35
2024/01/18 12:56:58;;;;;;;0.00;0.00;;;4.30;75.00;;;;;;5059523;28;20196;-35
2024/01/18 12:59:33;;;;;;;0.00;0.00;;;4.30;75.00;;;;;;5060989;28;20204;-35
2024/01/18 13:02:03;;;;;;;0.00;0.00;;;4.30;75.00;;;;;;5060785;28;20249;-36
2024/01/18 13:04:36;;;;;;;0.00;0.00;;;4.30;74.90;;;;;;5059354;28;20203;-37
2024/01/18 13:07:11;;;;;;;0.00;0.00;;;4.40;75.00;;;;;;5060699;28;20200;-36
2024/01/18 13:09:40;;;;;;;0.00;0.00;;;4.40;75.00;;;;;;5060336;28;20199;-37